Airfield :
LOGIN :

Register | Disclaimer

   EN    FR    IT 

 










Legend :    VFR   Marginal VFR   IFR   Intensive IFR   Very Intensive IFR
Visi :
Ceiling :
>= 8 km
>= 3000ft
5 to 8 km
1000 to 3000 ft
1500m to 5 km
500 to 1000 ft
800 to 1500m
200 to 500 ft
< 800m
< 200 ft
Symbols :   Thunderstorms  Fog  Heavy snow  Heavy precipitations  Wind > 20 kt
SIGMETs :     Misc.  Thunderstorms  Icing  Turbulence  Mountain Waves  Volcanic Ashes






- Airport Elevation : 2001 ft
- IATA code : MAD


LEMD - Madrid

CURRENT METAR :
  • 260730Z VRB01KT CAVOK 12/05 Q1022 NOSIG

EXPIRED METARs :
  • 260700Z VRB02KT CAVOK 09/05 Q1022 NOSIG
  • 260630Z VRB02KT CAVOK 10/04 Q1022 NOSIG
  • 260600Z VRB01KT CAVOK 09/03 Q1022 NOSIG
  • 260530Z 00000KT CAVOK 08/04 Q1022 NOSIG
  • 260500Z 00000KT CAVOK 08/04 Q1022 NOSIG

TAF TAF LEMD
Valid from the 26 at 06:00 until the 27 at 12:00 UTC


260500Z 2606/2712 VRB03KT CAVOK TX23/2615Z TN09/2606Z
PROB40
TEMPO 2607/2614 17008KT
BECMG 2614/2616 31010KT
PROB40
TEMPO 2615/2618 31015G25KT
BECMG 2704/2706 VRB04KT



MET'MAP, your aeronautical weather chart ! - Copyright ORBIFLY December 2007 - Disclaimer

ORBIFLY MET'MAP TEAM :

Programming & Development : Alexandra Zaïnal
Concept & original design : Baudouin d'Aumeries
Assistance for programming : Marc-Olivier Méhu
Technical & hardware support : Manuel Goepfert

Contact : metmap@orbifly.com




SOURCES & CREDITS :

   NOAA